Time;durP1;ratioP1;P1;durP2;ratioP2;P2;SDS_P1;SDS_P2;PMS_P1;PMS_P2;Temp;Humidity;BMP_temperature;BMP_pressure;BME280_temperature;BME280_humidity;BME280_pressure;Samples;Min_cycle;Max_cycle;Signal;HPM_P1;HPM_P2
2022/12/24 00:02:07;;;;;;;1.42;1.33;;;;;;;21.36;36.12;100295.06;5068410;28;20040;-72
2022/12/24 00:04:33;;;;;;;1.50;1.40;;;;;;;21.39;36.11;100293.84;5075170;28;20039;-72
2022/12/24 00:06:58;;;;;;;1.42;1.33;;;;;;;21.38;36.37;100289.56;5075162;28;20036;-72
2022/12/24 00:09:24;;;;;;;1.30;1.20;;;;;;;21.37;36.30;100290.59;5074323;28;20137;-72
2022/12/24 00:11:49;;;;;;;1.70;1.60;;;;;;;21.31;36.34;100292.19;5073808;28;20044;-71
2022/12/24 00:14:14;;;;;;;1.77;1.58;;;;;;;21.32;36.08;100285.88;5072365;28;20044;-72
2022/12/24 00:16:40;;;;;;;1.40;1.30;;;;;;;21.36;36.49;100296.88;5076037;28;20028;-72
2022/12/24 00:19:05;;;;;;;1.88;1.67;;;;;;;21.32;36.31;100300.94;5075605;28;20036;-72
2022/12/24 00:21:31;;;;;;;1.50;1.40;;;;;;;21.35;36.19;100297.88;5074756;28;20627;-72
2022/12/24 00:23:56;;;;;;;2.03;1.48;;;;;;;21.31;36.26;100304.63;5073123;28;20028;-72
2022/12/24 00:26:22;;;;;;;1.45;1.35;;;;;;;21.28;36.63;100311.13;5074990;28;20395;-72
2022/12/24 00:28:47;;;;;;;1.42;1.33;;;;;;;21.29;36.11;100307.47;5076691;28;20503;-73
2022/12/24 00:31:15;;;;;;;1.33;1.30;;;;;;;21.22;36.62;100316.41;5075416;28;20420;-72
2022/12/24 00:33:41;;;;;;;1.50;1.40;;;;;;;21.30;36.52;100329.47;5074766;28;20028;-71
2022/12/24 00:36:08;;;;;;;1.48;1.35;;;;;;;21.30;36.49;100318.88;5075109;28;20046;-72
2022/12/24 00:38:34;;;;;;;1.77;1.50;;;;;;;21.29;36.06;100314.59;5066576;28;20097;-72
2022/12/24 00:41:04;;;;;;;1.67;1.58;;;;;;;21.27;36.36;100322.75;5072655;28;20036;-72
2022/12/24 00:43:30;;;;;;;1.95;1.52;;;;;;;21.27;36.25;100333.34;5071532;28;20092;-72
2022/12/24 00:45:56;;;;;;;1.52;1.40;;;;;;;21.27;36.22;100329.88;5073725;28;20044;-72
2022/12/24 00:48:22;;;;;;;1.85;1.70;;;;;;;21.26;36.49;100331.72;5074685;28;20056;-72
2022/12/24 00:50:49;;;;;;;1.60;1.50;;;;;;;21.25;36.21;100335.38;5070653;28;20042;-72
2022/12/24 00:53:15;;;;;;;1.67;1.50;;;;;;;21.26;36.24;100337.00;5072239;28;20476;-72
2022/12/24 00:55:40;;;;;;;1.50;1.38;;;;;;;21.26;36.28;100339.66;5070080;28;20056;-72
2022/12/24 00:58:06;;;;;;;1.60;1.50;;;;;;;21.26;36.37;100337.00;5069551;28;20035;-72
2022/12/24 01:00:32;;;;;;;1.10;1.10;;;;;;;21.22;36.18;100350.81;5073129;28;20851;-72
2022/12/24 01:02:58;;;;;;;1.33;1.23;;;;;;;21.23;36.58;100347.16;5072344;28;20090;-72
2022/12/24 01:05:24;;;;;;;1.50;1.23;;;;;;;21.23;36.21;100349.81;5077530;28;20031;-72
2022/12/24 01:07:49;;;;;;;1.40;1.30;;;;;;;21.21;36.35;100349.19;5068942;28;20052;-74
2022/12/24 01:10:18;;;;;;;1.40;1.30;;;;;;;21.22;36.52;100349.00;5068303;28;20047;-72
2022/12/24 01:12:44;;;;;;;1.48;1.38;;;;;;;21.17;36.39;100356.69;5065808;28;20085;-72
2022/12/24 01:15:11;;;;;;;1.27;1.27;;;;;;;21.18;36.57;100358.31;5072534;28;20040;-72
2022/12/24 01:17:37;;;;;;;1.35;1.25;;;;;;;21.15;36.40;100357.91;5072218;28;20561;-72
2022/12/24 01:20:04;;;;;;;1.48;1.30;;;;;;;21.18;36.43;100368.09;5069723;28;20044;-72
2022/12/24 01:22:30;;;;;;;1.95;1.30;;;;;;;21.16;36.54;100370.94;5067097;28;20036;-71
2022/12/24 01:24:55;;;;;;;1.42;1.33;;;;;;;21.15;36.37;100368.50;5069733;28;20051;-72
2022/12/24 01:27:21;;;;;;;1.05;1.02;;;;;;;21.11;36.61;100374.19;5066771;28;20073;-72
2022/12/24 01:29:47;;;;;;;1.30;1.20;;;;;;;21.12;36.25;100388.25;5076224;28;20055;-72
2022/12/24 01:32:12;;;;;;;1.33;1.25;;;;;;;21.11;36.65;100391.91;5075891;28;20044;-72
2022/12/24 01:34:38;;;;;;;1.05;1.05;;;;;;;21.04;36.74;100391.09;5077649;28;20048;-72
2022/12/24 01:37:03;;;;;;;1.30;1.20;;;;;;;21.13;36.48;100393.34;5075424;28;20070;-72
2022/12/24 01:39:29;;;;;;;1.70;1.60;;;;;;;21.15;36.36;100401.09;5070901;28;20028;-71
2022/12/24 01:44:43;;;;;;;1.20;1.10;;;;;;;21.06;36.40;100399.66;5072721;28;20068;-72
2022/12/24 01:47:21;;;;;;;1.52;1.42;;;;;;;21.09;36.69;100405.34;5074639;28;20147;-72
2022/12/24 01:49:51;;;;;;;1.10;1.10;;;;;;;20.96;36.76;100384.13;5071184;28;20048;-73
2022/12/24 01:52:23;;;;;;;1.17;1.08;;;;;;;21.14;36.59;100404.75;5074184;28;20039;-72
2022/12/24 01:55:04;;;;;;;1.05;1.02;;;;;;;21.10;36.61;100404.34;5072889;28;20058;-73
2022/12/24 01:57:42;;;;;;;1.20;1.20;;;;;;;21.09;36.32;100389.47;5074236;28;20063;-73
2022/12/24 02:00:12;;;;;;;1.45;1.35;;;;;;;21.35;36.04;100409.13;5070725;28;20088;-72
2022/12/24 02:02:44;;;;;;;1.60;1.50;;;;;;;21.49;35.92;100409.97;5063542;28;20564;-73
2022/12/24 02:05:25;;;;;;;0.93;0.93;;;;;;;21.47;35.73;100415.47;5070167;28;20044;-73
2022/12/24 02:07:51;;;;;;;1.15;1.10;;;;;;;21.44;35.84;100415.06;5067595;28;20023;-72
2022/12/24 02:10:17;;;;;;;1.20;1.10;;;;;;;21.44;36.07;100415.88;5066706;28;20028;-73
2022/12/24 02:12:45;;;;;;;1.25;1.15;;;;;;;21.41;36.13;100422.41;5069796;28;20048;-73
2022/12/24 02:15:13;;;;;;;1.23;1.20;;;;;;;21.35;36.10;100419.72;5066704;28;20055;-72
2022/12/24 02:17:50;;;;;;;1.25;1.25;;;;;;;21.36;36.02;100418.69;5069825;28;20040;-72
2022/12/24 02:20:40;;;;;;;1.40;1.30;;;;;;;21.37;36.22;100423.84;5070504;28;20031;-72
2022/12/24 02:23:32;;;;;;;1.00;1.00;;;;;;;21.32;36.20;100431.53;5065754;28;20663;-73
2022/12/24 02:26:22;;;;;;;1.45;1.35;;;;;;;21.31;36.29;100431.72;5071642;28;20036;-73
2022/12/24 02:29:22;;;;;;;1.10;1.10;;;;;;;21.31;36.13;100448.44;5069700;28;20040;-72
2022/12/24 02:31:53;;;;;;;1.50;1.40;;;;;;;21.31;36.43;100445.78;5085547;28;20111;-72
2022/12/24 02:34:43;;;;;;;1.52;1.42;;;;;;;21.32;36.36;100447.44;5071740;28;20630;-73
2022/12/24 02:37:26;;;;;;;3.35;1.25;;;;;;;21.27;36.25;100443.75;5068492;28;20032;-72
2022/12/24 02:40:08;;;;;;;1.25;1.25;;;;;;;21.28;36.18;100459.44;5068261;28;20120;-72
2022/12/24 02:42:43;;;;;;;1.15;1.13;;;;;;;21.29;36.44;100458.41;5067326;28;20036;-72
2022/12/24 02:45:19;;;;;;;1.52;1.42;;;;;;;21.25;36.30;100456.38;5066542;28;20039;-72
2022/12/24 02:47:47;;;;;;;1.08;1.02;;;;;;;21.23;36.33;100455.72;5065611;28;20434;-72
2022/12/24 02:50:14;;;;;;;1.13;1.10;;;;;;;21.22;36.39;100462.03;5065466;28;20085;-72
2022/12/24 02:52:43;;;;;;;1.40;1.30;;;;;;;21.22;36.52;100462.84;5068931;28;20393;-72
2022/12/24 02:55:40;;;;;;;1.45;1.35;;;;;;;21.25;36.45;100467.78;5071057;28;20036;-72
2022/12/24 02:58:24;;;;;;;1.23;1.13;;;;;;;21.22;36.53;100465.50;5062735;28;20052;-72
2022/12/24 03:01:15;;;;;;;2.05;1.30;;;;;;;21.17;36.48;100478.50;5068768;28;21526;-72
2022/12/24 03:04:15;;;;;;;1.08;1.02;;;;;;;21.22;36.40;100473.44;5074864;28;20040;-72
2022/12/24 03:07:04;;;;;;;1.23;1.13;;;;;;;21.18;36.43;100474.00;5056327;28;20056;-72
2022/12/24 03:09:43;;;;;;;0.93;0.90;;;;;;;21.18;36.64;100485.41;5065342;28;20043;-72
2022/12/24 03:12:15;;;;;;;1.38;1.08;;;;;;;21.20;36.55;100483.41;5064963;28;20043;-72
2022/12/24 03:14:43;;;;;;;0.98;0.98;;;;;;;21.18;36.39;100479.31;5064333;28;20059;-72
2022/12/24 03:17:09;;;;;;;1.17;1.17;;;;;;;21.12;36.30;100492.31;5067900;28;20482;-72
2022/12/24 03:19:35;;;;;;;1.58;1.48;;;;;;;21.15;36.51;100488.47;5068781;28;20051;-72
2022/12/24 03:22:06;;;;;;;1.20;1.10;;;;;;;21.13;36.74;100493.16;5069347;28;20114;-72
2022/12/24 03:24:32;;;;;;;0.90;0.90;;;;;;;21.07;36.35;100486.00;5082672;28;20044;-72
2022/12/24 03:26:58;;;;;;;1.15;1.05;;;;;;;21.14;36.66;100497.41;5065938;28;20048;-72
2022/12/24 03:29:24;;;;;;;1.67;1.25;;;;;;;21.12;36.69;100494.97;5075459;28;20048;-71
2022/12/24 03:31:51;;;;;;;0.90;0.90;;;;;;;21.13;36.59;100498.44;5071015;28;20056;-72
2022/12/24 03:34:18;;;;;;;1.00;1.00;;;;;;;21.08;36.46;100496.38;5077778;28;20050;-72
2022/12/24 03:36:44;;;;;;;0.93;0.93;;;;;;;21.13;36.65;100514.31;5076318;28;20044;-72
2022/12/24 03:39:09;;;;;;;1.00;1.00;;;;;;;21.15;36.48;100493.75;5075692;28;20051;-71
2022/12/24 03:41:36;;;;;;;1.33;1.23;;;;;;;21.13;36.64;100503.75;5075684;28;20043;-72
2022/12/24 03:44:02;;;;;;;0.82;0.82;;;;;;;21.16;36.37;100521.88;5077071;28;20067;-72
2022/12/24 03:46:28;;;;;;;0.90;0.90;;;;;;;21.12;36.66;100510.03;5076374;28;20052;-72
2022/12/24 03:48:53;;;;;;;1.05;1.02;;;;;;;21.18;36.33;100511.91;5074960;28;20056;-73
2022/12/24 03:51:23;;;;;;;1.20;1.10;;;;;;;21.28;36.49;100519.53;5072741;28;20040;-72
2022/12/24 03:53:51;;;;;;;0.77;0.77;;;;;;;21.24;36.39;100524.41;5066798;28;20066;-72
2022/12/24 03:56:17;;;;;;;0.80;0.80;;;;;;;21.22;36.53;100533.53;5069413;28;20093;-72
2022/12/24 03:58:43;;;;;;;0.93;0.93;;;;;;;21.27;36.36;100531.97;5073371;28;20047;-72
2022/12/24 04:01:09;;;;;;;1.52;0.90;;;;;;;21.25;36.48;100531.34;5071778;28;20036;-72
2022/12/24 04:03:34;;;;;;;1.10;1.02;;;;;;;21.23;36.44;100527.22;5072525;28;20036;-72
2022/12/24 04:06:05;;;;;;;0.68;0.68;;;;;;;21.18;36.47;100527.78;5070496;28;20028;-72
2022/12/24 04:08:31;;;;;;;1.33;1.02;;;;;;;21.22;36.37;100529.06;5075000;28;20111;-71
2022/12/24 04:10:57;;;;;;;0.80;0.80;;;;;;;21.25;36.54;100541.13;5069127;28;20027;-72
2022/12/24 04:13:22;;;;;;;1.08;0.88;;;;;;;21.23;36.59;100537.81;5070826;28;20051;-72
2022/12/24 04:16:09;;;;;;;0.70;0.70;;;;;;;21.26;36.40;100540.09;5070638;28;20085;-71
2022/12/24 04:18:36;;;;;;;1.30;1.10;;;;;;;21.21;36.72;100551.25;5075568;28;20047;-72
2022/12/24 04:21:01;;;;;;;0.77;0.77;;;;;;;21.15;36.60;100543.25;5067709;28;21925;-71
2022/12/24 04:23:30;;;;;;;1.15;0.77;;;;;;;21.17;36.55;100557.94;5071737;28;20121;-72
2022/12/24 04:25:58;;;;;;;0.80;0.80;;;;;;;21.22;36.40;100570.59;5070307;28;20051;-71
2022/12/24 04:28:24;;;;;;;1.02;1.02;;;;;;;21.15;36.48;100572.38;5072423;28;20603;-72
2022/12/24 04:30:49;;;;;;;0.90;0.90;;;;;;;21.16;36.49;100568.72;5070520;28;20040;-71
2022/12/24 04:33:15;;;;;;;1.17;1.08;;;;;;;21.13;36.50;100583.16;5069960;28;20044;-72
2022/12/24 04:35:41;;;;;;;0.80;0.80;;;;;;;21.15;36.75;100581.13;5068759;28;20056;-72
2022/12/24 04:38:08;;;;;;;1.27;0.93;;;;;;;21.17;36.52;100576.47;5071823;28;20096;-72
2022/12/24 04:40:34;;;;;;;1.02;0.93;;;;;;;21.13;36.76;100575.22;5072351;28;20039;-72
2022/12/24 04:43:00;;;;;;;0.98;0.90;;;;;;;21.16;36.37;100577.47;5064227;28;20032;-71
2022/12/24 04:45:25;;;;;;;1.20;1.02;;;;;;;21.12;36.81;100574.41;5069996;28;20044;-71
2022/12/24 04:47:51;;;;;;;1.13;1.10;;;;;;;21.18;36.62;100574.63;5071795;28;20040;-71
2022/12/24 04:50:16;;;;;;;0.90;0.90;;;;;;;21.20;36.65;100576.09;5070145;28;20126;-72
2022/12/24 04:52:42;;;;;;;0.88;0.88;;;;;;;21.18;36.51;100588.69;5071322;28;20044;-71
2022/12/24 04:55:08;;;;;;;0.77;0.68;;;;;;;21.18;36.69;100593.16;5069308;28;21806;-72
2022/12/24 04:57:34;;;;;;;2.40;1.15;;;;;;;21.22;36.57;100602.38;5068806;28;20048;-71
2022/12/24 05:00:01;;;;;;;1.20;0.90;;;;;;;21.21;36.45;100598.09;5072249;28;20043;-71
2022/12/24 05:02:26;;;;;;;1.67;1.23;;;;;;;21.19;36.62;100600.13;5070647;28;20128;-71
2022/12/24 05:04:52;;;;;;;1.13;1.02;;;;;;;21.21;36.62;100606.03;5070630;28;20036;-71
2022/12/24 05:07:17;;;;;;;1.05;1.00;;;;;;;21.19;36.66;100602.78;5073886;28;20392;-72
2022/12/24 05:09:43;;;;;;;1.35;1.23;;;;;;;21.23;36.58;100612.78;5070266;28;20271;-71
2022/12/24 05:12:08;;;;;;;1.48;1.20;;;;;;;21.21;36.29;100606.88;5072675;28;20036;-71
2022/12/24 05:14:34;;;;;;;1.10;1.00;;;;;;;21.24;36.61;100622.41;5068733;28;20052;-72
2022/12/24 05:16:59;;;;;;;1.30;1.10;;;;;;;21.20;36.63;100631.72;5065519;28;20686;-71
2022/12/24 05:19:25;;;;;;;1.73;1.10;;;;;;;21.23;36.32;100626.03;5070418;28;20437;-72
2022/12/24 05:27:19;;;;;;;1.38;1.20;;;;;;;21.23;36.64;100639.25;5069641;28;20053;-71
2022/12/24 05:29:45;;;;;;;1.13;0.88;;;;;;;21.20;36.71;100631.72;5066165;28;20547;-71
2022/12/24 05:32:10;;;;;;;1.75;1.00;;;;;;;21.15;36.63;100630.63;5075293;28;20050;-71
2022/12/24 05:34:36;;;;;;;1.13;1.00;;;;;;;21.15;36.58;100641.22;5076059;28;20513;-71
2022/12/24 05:37:02;;;;;;;2.10;1.00;;;;;;;21.15;36.58;100638.56;5071761;28;20040;-71
2022/12/24 05:39:27;;;;;;;1.77;1.00;;;;;;;21.16;36.70;100646.31;5071265;28;20157;-72
2022/12/24 05:41:53;;;;;;;2.00;0.90;;;;;;;21.17;36.62;100645.31;5064703;28;20040;-71
2022/12/24 05:44:18;;;;;;;1.13;1.05;;;;;;;21.18;36.69;100652.25;5068042;28;20055;-71
2022/12/24 05:46:44;;;;;;;1.00;0.75;;;;;;;21.12;36.80;100658.31;5068942;28;20046;-71
2022/12/24 05:49:09;;;;;;;2.45;1.17;;;;;;;21.13;36.56;100658.13;5070997;28;20039;-72
2022/12/24 05:51:35;;;;;;;1.67;1.02;;;;;;;21.11;36.92;100652.19;5071352;28;20871;-71
2022/12/24 05:54:01;;;;;;;2.17;1.30;;;;;;;21.14;36.72;100658.94;5071307;28;20047;-71
2022/12/24 05:56:26;;;;;;;1.27;1.10;;;;;;;21.14;36.67;100653.66;5070839;28;20039;-71
2022/12/24 05:58:53;;;;;;;1.98;1.10;;;;;;;21.12;36.75;100661.78;5071817;28;20043;-72
2022/12/24 06:01:20;;;;;;;2.00;1.70;;;;;;;21.07;36.89;100653.59;5070615;28;20147;-71
2022/12/24 06:03:47;;;;;;;2.38;1.45;;;;;;;21.11;36.61;100664.63;5066971;28;20457;-71
2022/12/24 06:06:18;;;;;;;2.35;1.00;;;;;;;21.07;36.70;100658.91;5076397;28;20036;-71
2022/12/24 06:08:43;;;;;;;1.27;0.88;;;;;;;21.15;36.68;100665.06;5077642;28;20035;-71
2022/12/24 06:11:12;;;;;;;2.35;1.20;;;;;;;21.15;36.93;100665.06;5074565;28;20126;-71
2022/12/24 06:13:39;;;;;;;1.95;1.30;;;;;;;21.15;36.63;100670.34;5075909;28;20040;-71
2022/12/24 06:16:06;;;;;;;2.65;1.33;;;;;;;21.18;36.49;100673.44;5073763;28;20047;-71
2022/12/24 06:18:34;;;;;;;1.70;1.15;;;;;;;21.17;36.69;100671.78;5059960;28;20042;-71
2022/12/24 06:20:59;;;;;;;2.88;1.40;;;;;;;21.21;36.60;100674.91;5069949;28;20036;-72
2022/12/24 06:23:28;;;;;;;1.40;1.10;;;;;;;21.21;36.38;100675.72;5068860;28;20398;-71
2022/12/24 06:25:56;;;;;;;2.20;1.30;;;;;;;21.19;36.57;100676.91;5067128;28;20123;-72
2022/12/24 06:28:21;;;;;;;1.15;1.00;;;;;;;21.26;36.37;100683.94;5069042;28;20617;-71
2022/12/24 06:30:49;;;;;;;1.83;1.20;;;;;;;21.42;36.04;100686.28;5068605;28;20112;-72
2022/12/24 06:33:15;;;;;;;1.92;1.27;;;;;;;21.52;36.10;100699.16;5071092;28;20068;-71
2022/12/24 06:35:40;;;;;;;3.22;1.35;;;;;;;21.52;35.99;100693.88;5067971;28;20134;-71
2022/12/24 06:38:06;;;;;;;2.88;1.50;;;;;;;21.53;36.14;100697.34;5068935;28;20151;-71
2022/12/24 06:40:31;;;;;;;1.55;1.10;;;;;;;21.50;36.09;100695.09;5067111;28;20033;-71
2022/12/24 06:42:57;;;;;;;1.98;1.13;;;;;;;21.35;36.14;100690.69;5071550;28;20731;-72
2022/12/24 06:45:22;;;;;;;2.42;1.58;;;;;;;21.38;36.46;100706.22;5064878;28;20040;-71
2022/12/24 06:47:48;;;;;;;2.00;1.10;;;;;;;21.40;36.53;100704.19;5067160;28;21756;-71
2022/12/24 06:50:13;;;;;;;2.85;1.30;;;;;;;21.33;36.58;100707.81;5066977;28;20048;-71
2022/12/24 06:52:39;;;;;;;1.40;0.65;;;;;;;21.37;36.60;100709.91;5072630;28;20035;-71
2022/12/24 06:55:05;;;;;;;2.70;1.10;;;;;;;21.36;36.42;100716.22;5067227;28;20043;-71
2022/12/24 06:57:31;;;;;;;1.52;1.08;;;;;;;21.36;36.45;100715.34;5065783;28;20048;-71
2022/12/24 06:59:59;;;;;;;1.85;1.23;;;;;;;21.36;36.61;100716.22;5071332;28;20036;-71
2022/12/24 07:02:25;;;;;;;3.88;1.52;;;;;;;21.35;36.68;100726.97;5070991;28;20512;-71
2022/12/24 07:04:51;;;;;;;2.33;1.30;;;;;;;21.34;36.60;100723.50;5075730;28;20028;-71
2022/12/24 07:07:17;;;;;;;3.35;1.27;;;;;;;21.36;36.90;100728.59;5073675;28;20490;-71
2022/12/24 07:09:42;;;;;;;1.63;1.45;;;;;;;21.34;36.50;100736.75;5070277;28;20048;-72
2022/12/24 07:12:08;;;;;;;3.40;1.10;;;;;;;21.32;36.73;100738.75;5073366;28;20039;-71
2022/12/24 07:14:33;;;;;;;2.10;1.38;;;;;;;21.31;37.00;100742.44;5075487;28;20173;-72
2022/12/24 07:16:59;;;;;;;2.22;1.30;;;;;;;21.34;36.60;100746.50;5071169;28;20089;-71
2022/12/24 07:19:25;;;;;;;2.33;1.50;;;;;;;21.27;36.73;100743.00;5072111;28;20499;-71
2022/12/24 07:21:50;;;;;;;2.42;1.55;;;;;;;21.25;36.67;100748.50;5074546;28;20051;-71
2022/12/24 07:24:16;;;;;;;2.70;1.48;;;;;;;21.29;36.78;100759.53;5072949;28;20040;-71
2022/12/24 07:26:41;;;;;;;2.72;1.40;;;;;;;21.26;36.71;100757.25;5069869;28;20050;-71
2022/12/24 07:29:07;;;;;;;1.75;1.10;;;;;;;21.27;36.66;100753.59;5073577;28;20047;-71
2022/12/24 07:31:32;;;;;;;2.50;1.45;;;;;;;21.29;36.80;100765.63;5075904;28;20035;-72
2022/12/24 07:33:58;;;;;;;2.10;1.20;;;;;;;21.26;36.76;100773.16;5074703;28;20052;-72
2022/12/24 07:36:24;;;;;;;1.80;1.50;;;;;;;21.24;36.74;100773.34;5074527;28;20048;-72
2022/12/24 07:38:50;;;;;;;1.50;1.27;;;;;;;21.26;36.84;100758.06;5068754;28;20036;-72
2022/12/24 07:41:15;;;;;;;3.40;1.60;;;;;;;21.23;36.77;100757.63;5076143;28;20606;-71
2022/12/24 07:43:41;;;;;;;2.10;1.20;;;;;;;21.22;36.86;100771.88;5075629;28;20040;-72
2022/12/24 07:46:07;;;;;;;1.88;1.15;;;;;;;21.23;36.84;100781.44;5075276;28;20604;-71
2022/12/24 07:48:33;;;;;;;1.58;1.13;;;;;;;21.25;36.67;100779.47;5077864;28;20056;-71
2022/12/24 07:50:59;;;;;;;2.55;1.50;;;;;;;21.22;37.01;100785.09;5073612;28;20033;-71
2022/12/24 07:53:26;;;;;;;1.58;1.10;;;;;;;21.21;36.90;100794.88;5074467;28;20482;-72
2022/12/24 07:55:52;;;;;;;2.42;1.58;;;;;;;21.19;36.88;100801.38;5075321;28;20063;-71
2022/12/24 07:58:17;;;;;;;4.05;1.70;;;;;;;21.19;37.01;100810.16;5075272;28;20043;-71
2022/12/24 08:00:43;;;;;;;3.17;1.58;;;;;;;21.23;36.68;100806.09;5076197;28;20028;-71
2022/12/24 08:03:18;;;;;;;2.33;1.27;;;;;;;21.24;36.82;100802.47;5077520;28;20086;-71
2022/12/24 08:05:44;;;;;;;2.92;1.40;;;;;;;21.17;37.01;100809.50;5074780;28;20248;-71
2022/12/24 08:08:10;;;;;;;2.60;1.80;;;;;;;21.19;36.91;100809.31;5076564;28;20035;-71
2022/12/24 08:10:38;;;;;;;2.08;1.20;;;;;;;21.19;36.92;100820.75;5071722;28;20686;-71
2022/12/24 08:13:04;;;;;;;1.55;1.35;;;;;;;21.18;36.89;100823.53;5073437;28;20655;-71
2022/12/24 08:15:30;;;;;;;2.17;1.38;;;;;;;21.20;37.02;100830.31;5071825;28;20036;-72
2022/12/24 08:17:55;;;;;;;2.72;1.73;;;;;;;21.16;36.87;100841.44;5073589;28;20514;-69
2022/12/24 08:20:21;;;;;;;2.00;1.10;;;;;;;21.16;36.82;100842.28;5070055;28;20382;-70
2022/12/24 08:22:46;;;;;;;2.53;1.27;;;;;;;21.13;37.14;100838.19;5068321;28;20040;-70
2022/12/24 08:25:12;;;;;;;3.45;1.65;;;;;;;21.13;36.99;100848.78;5069361;28;20114;-70
2022/12/24 08:27:37;;;;;;;2.78;1.63;;;;;;;21.08;37.11;100853.00;5069768;28;20051;-70
2022/12/24 08:30:04;;;;;;;3.50;1.63;;;;;;;21.11;37.08;100848.13;5071596;28;20075;-70
2022/12/24 08:32:30;;;;;;;2.33;1.48;;;;;;;21.09;36.96;100852.00;5071582;28;20489;-69
2022/12/24 08:34:55;;;;;;;4.50;1.40;;;;;;;21.10;36.92;100853.63;5070083;28;20047;-69
2022/12/24 08:37:21;;;;;;;2.97;1.70;;;;;;;21.09;37.20;100857.28;5069168;28;20028;-70
2022/12/24 08:39:46;;;;;;;1.92;1.20;;;;;;;21.11;36.99;100863.22;5070833;28;20482;-70
2022/12/24 08:42:12;;;;;;;1.98;1.20;;;;;;;21.13;36.91;100875.25;5069805;28;20481;-70
2022/12/24 08:44:37;;;;;;;2.63;1.55;;;;;;;21.08;37.15;100869.69;5072378;28;20046;-70
2022/12/24 08:47:03;;;;;;;2.58;1.45;;;;;;;21.07;36.90;100875.19;5068314;28;20092;-70
2022/12/24 08:49:28;;;;;;;3.25;1.48;;;;;;;21.06;37.05;100879.66;5071474;28;20777;-70
2022/12/24 08:51:54;;;;;;;3.58;1.88;;;;;;;21.10;37.05;100880.91;5071382;28;20156;-70
2022/12/24 08:54:21;;;;;;;3.58;1.65;;;;;;;21.37;36.46;100881.25;5077131;28;20417;-70
2022/12/24 08:56:46;;;;;;;2.05;1.17;;;;;;;21.66;35.73;100888.25;5074201;28;20035;-70
2022/12/24 08:59:12;;;;;;;2.45;1.58;;;;;;;21.69;35.97;100891.31;5073643;28;20494;-70
2022/12/24 09:01:37;;;;;;;3.75;1.80;;;;;;;21.68;35.96;100896.81;5069140;28;20036;-70
2022/12/24 09:04:03;;;;;;;2.85;1.65;;;;;;;21.66;36.21;100904.97;5075252;28;20059;-70
2022/12/24 09:06:30;;;;;;;3.38;1.30;;;;;;;21.62;35.96;100914.31;5074138;28;20079;-69
2022/12/24 09:08:56;;;;;;;2.53;1.35;;;;;;;21.58;36.40;100913.06;5076070;28;20043;-69
2022/12/24 09:11:21;;;;;;;1.90;1.17;;;;;;;21.59;36.18;100917.34;5068987;28;20137;-69
2022/12/24 09:13:47;;;;;;;2.65;1.70;;;;;;;21.54;36.16;100914.41;5071805;28;20390;-69
2022/12/24 09:16:12;;;;;;;4.03;1.50;;;;;;;21.54;36.23;100929.50;5072025;28;20557;-69
2022/12/24 09:18:38;;;;;;;2.15;1.63;;;;;;;21.51;36.68;100924.56;5070117;28;20096;-69
2022/12/24 09:21:10;;;;;;;3.50;1.42;;;;;;;21.47;36.42;100924.13;5071024;28;20139;-70
2022/12/24 09:23:40;;;;;;;3.00;1.48;;;;;;;21.44;36.66;100926.34;5075684;28;20745;-70
2022/12/24 09:26:16;;;;;;;3.35;1.48;;;;;;;21.40;36.71;100932.03;5072875;28;20028;-70
2022/12/24 09:28:42;;;;;;;3.40;1.63;;;;;;;21.35;36.90;100937.03;5069121;28;20032;-70
2022/12/24 09:31:09;;;;;;;3.05;1.88;;;;;;;21.31;36.96;100927.00;5078347;28;20028;-70
2022/12/24 09:33:37;;;;;;;2.65;1.70;;;;;;;21.28;37.03;100933.50;5073397;28;20051;-70
2022/12/24 09:36:03;;;;;;;3.05;1.92;;;;;;;21.20;37.23;100946.03;5088073;28;20121;-70
2022/12/24 09:38:29;;;;;;;2.47;1.63;;;;;;;21.18;36.92;100948.81;5072561;28;20051;-70
2022/12/24 09:40:55;;;;;;;3.50;1.63;;;;;;;21.19;36.92;100955.78;5072817;28;20101;-69
2022/12/24 09:43:25;;;;;;;4.00;1.83;;;;;;;21.24;37.17;100961.38;5078366;28;20151;-71
2022/12/24 09:46:12;;;;;;;3.80;1.70;;;;;;;21.27;36.92;100955.72;5079443;28;20054;-69
2022/12/24 09:48:42;;;;;;;3.20;1.70;;;;;;;21.17;37.21;100963.06;5072620;28;20078;-70
2022/12/24 09:51:20;;;;;;;3.33;1.35;;;;;;;21.27;36.94;100960.19;5071724;28;20075;-69
2022/12/24 09:54:07;;;;;;;3.65;1.80;;;;;;;21.26;36.87;100977.09;5077144;28;20583;-70
2022/12/24 09:56:38;;;;;;;3.10;1.83;;;;;;;21.19;37.02;100963.75;5075452;28;20112;-70
2022/12/24 09:59:10;;;;;;;4.57;1.63;;;;;;;21.27;36.80;100966.31;5073045;28;20514;-70
2022/12/24 10:01:35;;;;;;;3.88;1.90;;;;;;;21.18;36.78;100971.84;5076702;28;20036;-71
2022/12/24 10:04:11;;;;;;;2.88;1.38;;;;;;;21.24;36.77;100984.38;5078425;28;20040;-69
2022/12/24 10:07:16;;;;;;;3.55;1.80;;;;;;;21.20;36.82;100985.75;5076178;28;20044;-70
2022/12/24 10:10:00;;;;;;;4.03;2.13;;;;;;;21.21;37.04;100988.22;5078146;28;20785;-70
2022/12/24 10:12:34;;;;;;;2.47;1.65;;;;;;;21.24;36.76;100984.38;5076153;28;20415;-69
2022/12/24 10:15:00;;;;;;;3.85;1.83;;;;;;;21.23;36.81;100986.19;5077038;28;20042;-69
2022/12/24 10:17:45;;;;;;;3.58;1.65;;;;;;;21.23;36.73;100988.84;5073375;28;20028;-70
2022/12/24 10:20:22;;;;;;;3.88;1.70;;;;;;;21.23;36.95;100991.50;5074585;28;20124;-69
2022/12/24 10:23:01;;;;;;;2.55;1.58;;;;;;;21.17;36.82;100978.97;5076610;28;20043;-69
2022/12/24 10:25:39;;;;;;;5.72;2.10;;;;;;;21.14;37.05;100976.69;5076310;28;20043;-69
2022/12/24 10:28:14;;;;;;;3.50;1.67;;;;;;;21.13;36.78;100975.88;5069155;28;20051;-70
2022/12/24 10:30:40;;;;;;;3.78;1.85;;;;;;;21.13;36.87;100975.06;5075349;28;20039;-69
2022/12/24 10:33:28;;;;;;;3.83;1.73;;;;;;;21.11;37.14;100988.47;5077015;28;20039;-70
2022/12/24 10:35:55;;;;;;;3.00;1.50;;;;;;;21.17;36.77;100986.09;5075615;28;20510;-69
2022/12/24 10:38:21;;;;;;;3.28;1.80;;;;;;;21.13;36.87;100993.59;5082136;28;20047;-69
2022/12/24 10:40:51;;;;;;;4.25;2.00;;;;;;;21.16;37.09;100982.63;5080043;28;20059;-70
2022/12/24 10:43:22;;;;;;;2.53;1.35;;;;;;;21.13;37.13;100996.25;5081146;28;20588;-71
2022/12/24 10:45:57;;;;;;;4.18;1.60;;;;;;;21.10;37.17;100994.78;5075981;28;20139;-70
2022/12/24 10:48:31;;;;;;;3.47;1.55;;;;;;;21.08;37.09;100996.78;5077497;28;20445;-69
2022/12/24 10:51:02;;;;;;;3.15;1.67;;;;;;;21.15;37.01;101001.34;5078797;28;20108;-69
2022/12/24 10:53:47;;;;;;;4.07;1.80;;;;;;;21.08;36.90;100999.44;5079725;28;20477;-69
2022/12/24 10:56:16;;;;;;;4.05;1.85;;;;;;;21.22;36.91;101005.75;5081048;28;20119;-69
2022/12/24 10:58:50;;;;;;;3.28;1.92;;;;;;;21.25;36.83;101007.22;5081159;28;20040;-69
2022/12/24 11:01:15;;;;;;;3.78;1.58;;;;;;;21.13;37.09;100993.59;5079304;28;20031;-69
2022/12/24 11:03:41;;;;;;;5.75;1.70;;;;;;;21.11;36.98;100990.31;5072848;28;20091;-69
2022/12/24 11:06:09;;;;;;;2.65;1.50;;;;;;;21.09;37.05;100987.84;5074410;28;20619;-69
2022/12/24 11:08:37;;;;;;;2.83;1.30;;;;;;;21.00;37.34;100983.63;5075113;28;20028;-71
2022/12/24 11:11:12;;;;;;;3.75;1.45;;;;;;;21.04;37.31;100981.47;5077692;28;20124;-70
2022/12/24 11:13:53;;;;;;;3.20;1.73;;;;;;;21.06;37.06;100990.88;5073756;28;20560;-70
2022/12/24 11:16:29;;;;;;;2.70;1.60;;;;;;;21.14;37.08;101000.53;5074102;28;20044;-70
2022/12/24 11:19:01;;;;;;;2.55;1.33;;;;;;;21.12;37.17;100992.75;5078408;28;20082;-70
2022/12/24 11:21:30;;;;;;;3.42;1.73;;;;;;;21.12;36.83;100995.41;5080319;28;20428;-71
2022/12/24 11:24:20;;;;;;;2.55;1.65;;;;;;;21.20;37.05;101002.47;5080750;28;20050;-70
2022/12/24 11:26:46;;;;;;;2.78;1.40;;;;;;;21.16;37.00;100993.22;5071750;28;20047;-71
2022/12/24 11:29:18;;;;;;;2.70;1.60;;;;;;;21.13;36.97;100997.06;5077202;28;20043;-74
2022/12/24 11:31:44;;;;;;;3.05;1.60;;;;;;;21.19;37.02;100989.41;5072019;28;20064;-70
2022/12/24 11:34:36;;;;;;;3.10;1.73;;;;;;;21.11;37.05;101001.72;5074171;28;20096;-69
2022/12/24 11:37:13;;;;;;;2.83;1.85;;;;;;;21.15;37.04;101014.59;5075647;28;20135;-70
2022/12/24 11:40:21;;;;;;;3.38;1.92;;;;;;;21.15;36.89;101014.59;5075581;28;20036;-70
2022/12/24 11:42:52;;;;;;;4.83;2.23;;;;;;;21.14;37.08;101013.75;5056696;28;20039;-70